Time;durP1;ratioP1;P1;durP2;ratioP2;P2;SDS_P1;SDS_P2;PMS_P1;PMS_P2;Temp;Humidity;BMP_temperature;BMP_pressure;BME280_temperature;BME280_humidity;BME280_pressure;Samples;Min_cycle;Max_cycle;Signal;HPM_P1;HPM_P2
2023/02/02 00:02:25;;;;;;;6.80;3.95;;;;;;;;;;4900012;29;20051;-69
2023/02/02 00:04:50;;;;;;;5.22;3.50;;;;;;;;;;4899716;29;20553;-69
2023/02/02 00:07:15;;;;;;;3.70;3.00;;;;;;;;;;4899809;29;20037;-69
2023/02/02 00:09:41;;;;;;;3.53;3.22;;;;;;;;;;4882674;29;20037;-69
2023/02/02 00:12:06;;;;;;;3.47;2.83;;;;;;;;;;4899498;29;20017;-69
2023/02/02 00:14:31;;;;;;;3.05;2.67;;;;;;;;;;4899904;29;20035;-69
2023/02/02 00:16:59;;;;;;;3.13;2.90;;;;;;;;;;4899783;29;20084;-68
2023/02/02 00:19:25;;;;;;;2.92;2.63;;;;;;;;;;4899748;29;20037;-69
2023/02/02 00:21:51;;;;;;;2.70;2.03;;;;;;;;;;4899604;29;20084;-68
2023/02/02 00:24:17;;;;;;;2.42;2.22;;;;;;;;;;4882422;29;20087;-69
2023/02/02 00:26:46;;;;;;;2.25;2.08;;;;;;;;;;4899454;29;20479;-69
2023/02/02 00:29:30;;;;;;;2.00;1.73;;;;;;;;;;4882627;29;20028;-67
2023/02/02 00:31:56;;;;;;;1.75;1.65;;;;;;;;;;4899530;29;20032;-67
2023/02/02 00:34:24;;;;;;;2.55;2.15;;;;;;;;;;4882870;29;20087;-68
2023/02/02 00:36:52;;;;;;;3.42;1.80;;;;;;;;;;4899927;29;20048;-68
2023/02/02 00:39:20;;;;;;;1.48;1.38;;;;;;;;;;4867420;29;20021;-69
2023/02/02 00:41:45;;;;;;;2.00;1.60;;;;;;;;;;4882735;29;20066;-65
2023/02/02 00:46:55;;;;;;;1.95;1.80;;;;;;;;;;4882203;29;20028;-64
2023/02/02 00:49:21;;;;;;;1.80;1.70;;;;;;;;;;4881744;29;20473;-64
2023/02/02 00:51:46;;;;;;;2.53;1.60;;;;;;;;;;4898687;29;20086;-64
2023/02/02 00:54:15;;;;;;;1.88;1.30;;;;;;;;;;4881984;29;20441;-64
2023/02/02 00:56:41;;;;;;;1.75;1.65;;;;;;;;;;4866603;29;20033;-64
2023/02/02 00:59:06;;;;;;;1.45;1.35;;;;;;;;;;4898451;29;20048;-64
2023/02/02 01:01:32;;;;;;;1.67;1.45;;;;;;;;;;4898624;29;20039;-64
2023/02/02 01:03:57;;;;;;;1.83;1.67;;;;;;;;;;4898604;29;20021;-64
2023/02/02 01:06:23;;;;;;;1.60;1.50;;;;;;;;;;4898437;29;20120;-64
2023/02/02 01:08:48;;;;;;;1.60;1.50;;;;;;;;;;4881723;29;20029;-64
2023/02/02 01:11:17;;;;;;;1.40;1.30;;;;;;;;;;4881590;29;20067;-64
2023/02/02 01:13:42;;;;;;;1.25;1.15;;;;;;;;;;4898532;29;20029;-64
2023/02/02 01:16:10;;;;;;;1.38;1.27;;;;;;;;;;4898544;29;20159;-64
2023/02/02 01:18:35;;;;;;;1.20;1.10;;;;;;;;;;4898388;29;20025;-64
2023/02/02 01:21:03;;;;;;;0.90;0.90;;;;;;;;;;4882005;29;20369;-64
2023/02/02 01:23:29;;;;;;;1.10;1.00;;;;;;;;;;4881070;29;20064;-67
2023/02/02 01:25:59;;;;;;;1.27;1.00;;;;;;;;;;4898206;29;20071;-64
2023/02/02 01:28:24;;;;;;;1.07;0.97;;;;;;;;;;4865704;29;20036;-64
2023/02/02 01:30:50;;;;;;;0.90;0.85;;;;;;;;;;4880953;29;20297;-63
2023/02/02 01:33:16;;;;;;;0.98;0.82;;;;;;;;;;4898282;29;20029;-63
2023/02/02 01:35:48;;;;;;;0.88;0.88;;;;;;;;;;4897260;29;20032;-62
2023/02/02 01:38:14;;;;;;;1.15;0.93;;;;;;;;;;4881247;29;20074;-63
2023/02/02 01:40:44;;;;;;;0.98;0.80;;;;;;;;;;4881318;29;20473;-63
2023/02/02 01:43:21;;;;;;;1.10;1.00;;;;;;;;;;4897860;29;20519;-63
2023/02/02 01:45:46;;;;;;;0.95;0.90;;;;;;;;;;4897884;29;20036;-62
2023/02/02 01:48:12;;;;;;;1.65;1.20;;;;;;;;;;4897810;29;20040;-62
2023/02/02 01:50:37;;;;;;;1.48;1.20;;;;;;;;;;4880978;29;20056;-62
2023/02/02 01:53:04;;;;;;;2.67;1.20;;;;;;;;;;4897859;29;20029;-62
2023/02/02 01:55:31;;;;;;;1.40;1.23;;;;;;;;;;4865529;29;20033;-63
2023/02/02 01:58:05;;;;;;;2.30;1.27;;;;;;;;;;4897759;29;20028;-63
2023/02/02 02:00:31;;;;;;;1.23;1.13;;;;;;;;;;4897820;29;20040;-63
2023/02/02 02:02:59;;;;;;;1.95;1.33;;;;;;;;;;4897395;29;20651;-63
2023/02/02 02:05:31;;;;;;;1.30;1.20;;;;;;;;;;4880910;29;20119;-63
2023/02/02 02:08:01;;;;;;;1.35;1.25;;;;;;;;;;4880525;29;20052;-63
2023/02/02 02:10:27;;;;;;;;;;;;;;;;;;4865392;29;20059;-63
2023/02/02 02:12:53;;;;;;;1.27;1.17;;;;;;;;;;4880247;29;20364;-63
2023/02/02 02:18:09;;;;;;;1.20;1.10;;;;;;;;;;4897768;29;20035;-63
2023/02/02 02:26:34;;;;;;;1.35;1.15;;;;;;;;;;4880871;29;20412;-66
2023/02/02 02:29:18;;;;;;;1.67;1.08;;;;;;;;;;4880644;29;20102;-65
2023/02/02 02:31:44;;;;;;;1.48;1.25;;;;;;;;;;4880588;29;20032;-65
2023/02/02 02:34:33;;;;;;;1.80;1.20;;;;;;;;;;4880792;29;20486;-63
2023/02/02 02:37:21;;;;;;;2.03;1.30;;;;;;;;;;4870456;29;20033;-63
2023/02/02 02:39:56;;;;;;;2.47;1.30;;;;;;;;;;4889400;29;20045;-64
2023/02/02 02:42:24;;;;;;;1.67;1.30;;;;;;;;;;4865667;29;20060;-64
2023/02/02 02:44:50;;;;;;;2.38;1.50;;;;;;;;;;4897977;29;20037;-63
2023/02/02 02:47:16;;;;;;;1.83;1.33;;;;;;;;;;4866485;29;20445;-64
2023/02/02 02:49:46;;;;;;;2.13;1.45;;;;;;;;;;4900774;29;20450;-63
2023/02/02 02:52:12;;;;;;;2.47;1.45;;;;;;;;;;4883975;29;20032;-63
2023/02/02 02:54:49;;;;;;;2.72;1.45;;;;;;;;;;4883835;29;20076;-64
2023/02/02 02:57:26;;;;;;;1.65;1.10;;;;;;;;;;4900427;29;20504;-63
2023/02/02 03:00:06;;;;;;;2.40;1.17;;;;;;;;;;4900363;29;20052;-65
2023/02/02 03:02:32;;;;;;;;;;;;;;;;;;4901051;29;20040;-68
2023/02/02 03:05:16;;;;;;;3.70;1.63;;;;;;;;;;4915586;23;20250;-65
2023/02/02 03:07:43;;;;;;;2.20;1.35;;;;;;;;;;4890158;29;20037;-65
2023/02/02 03:10:10;;;;;;;1.52;1.10;;;;;;;;;;4883822;29;20385;-65
2023/02/02 03:12:43;;;;;;;3.03;1.45;;;;;;;;;;4898534;29;20088;-66
2023/02/02 03:15:08;;;;;;;1.95;1.17;;;;;;;;;;4892556;29;20426;-64
2023/02/02 03:17:35;;;;;;;1.65;1.30;;;;;;;;;;4889698;29;20052;-65
2023/02/02 03:20:01;;;;;;;2.78;1.35;;;;;;;;;;4893676;29;20041;-65
2023/02/02 03:22:27;;;;;;;4.03;1.42;;;;;;;;;;4900494;29;20051;-65
2023/02/02 03:24:52;;;;;;;2.58;1.30;;;;;;;;;;4888722;29;20040;-64
2023/02/02 03:27:18;;;;;;;2.85;1.55;;;;;;;;;;4899403;29;20024;-65
2023/02/02 03:29:43;;;;;;;1.90;1.20;;;;;;;;;;4898726;29;20043;-65
2023/02/02 03:32:09;;;;;;;2.55;1.42;;;;;;;;;;4883402;29;20071;-65
2023/02/02 03:34:34;;;;;;;3.55;1.58;;;;;;;;;;4900148;29;20029;-66
2023/02/02 03:36:59;;;;;;;6.93;1.70;;;;;;;;;;4898967;29;20033;-64
2023/02/02 03:39:25;;;;;;;2.95;1.20;;;;;;;;;;4899789;29;20168;-65
2023/02/02 03:41:50;;;;;;;3.25;1.40;;;;;;;;;;4900149;29;20385;-65
2023/02/02 03:44:15;;;;;;;3.35;1.20;;;;;;;;;;4900030;29;20028;-66
2023/02/02 03:46:41;;;;;;;3.20;1.52;;;;;;;;;;4898791;29;20035;-63
2023/02/02 03:49:06;;;;;;;3.03;1.58;;;;;;;;;;4899719;29;20044;-63
2023/02/02 03:51:32;;;;;;;4.78;1.70;;;;;;;;;;4898563;29;20040;-63
2023/02/02 03:53:57;;;;;;;4.30;1.98;;;;;;;;;;4899716;29;20043;-63
2023/02/02 03:56:23;;;;;;;3.20;1.55;;;;;;;;;;4899761;29;20029;-63
2023/02/02 03:58:48;;;;;;;2.20;1.35;;;;;;;;;;4898736;29;20055;-62
2023/02/02 04:01:14;;;;;;;3.13;1.60;;;;;;;;;;4898386;29;20485;-63
2023/02/02 04:03:39;;;;;;;2.92;1.25;;;;;;;;;;4899489;29;20049;-64
2023/02/02 04:06:05;;;;;;;4.03;1.40;;;;;;;;;;4899481;29;20104;-63
2023/02/02 04:08:30;;;;;;;4.18;1.52;;;;;;;;;;4882785;29;20042;-63
2023/02/02 04:10:56;;;;;;;2.63;1.58;;;;;;;;;;4882650;29;20131;-64
2023/02/02 04:13:21;;;;;;;3.28;1.45;;;;;;;;;;4899587;29;20029;-64
2023/02/02 04:15:46;;;;;;;3.88;1.25;;;;;;;;;;4899512;29;20060;-64
2023/02/02 04:18:12;;;;;;;2.63;1.27;;;;;;;;;;4899536;29;20135;-64
2023/02/02 04:20:37;;;;;;;1.70;1.08;;;;;;;;;;4899275;29;20158;-63
2023/02/02 04:23:02;;;;;;;2.58;1.27;;;;;;;;;;4899360;29;20821;-64
2023/02/02 04:25:28;;;;;;;1.52;1.33;;;;;;;;;;4881746;29;20128;-64
2023/02/02 04:27:53;;;;;;;4.63;1.75;;;;;;;;;;4882656;29;20035;-65
2023/02/02 04:30:19;;;;;;;2.88;1.48;;;;;;;;;;4894088;29;20040;-63
2023/02/02 04:32:44;;;;;;;2.38;1.65;;;;;;;;;;4899215;29;20029;-64
2023/02/02 04:35:10;;;;;;;3.08;1.77;;;;;;;;;;4898951;29;20479;-64
2023/02/02 04:37:36;;;;;;;4.10;1.67;;;;;;;;;;4898834;29;20176;-64
2023/02/02 04:40:01;;;;;;;5.88;1.98;;;;;;;;;;4898883;29;20032;-64
2023/02/02 04:42:30;;;;;;;3.30;1.73;;;;;;;;;;4866670;29;20028;-64
2023/02/02 04:44:56;;;;;;;6.18;1.73;;;;;;;;;;4898970;29;20036;-64
2023/02/02 04:47:21;;;;;;;3.38;1.60;;;;;;;;;;4881726;29;20025;-63
2023/02/02 04:49:47;;;;;;;2.17;1.48;;;;;;;;;;4899235;29;20065;-63
2023/02/02 04:52:17;;;;;;;1.73;1.30;;;;;;;;;;4883210;29;20067;-63
2023/02/02 04:54:42;;;;;;;2.28;1.58;;;;;;;;;;4899453;29;20400;-62
2023/02/02 04:57:08;;;;;;;3.28;1.52;;;;;;;;;;4898940;29;20115;-62
2023/02/02 04:59:33;;;;;;;2.13;1.63;;;;;;;;;;4898764;29;20033;-63
2023/02/02 05:01:59;;;;;;;1.95;1.70;;;;;;;;;;4898418;29;20081;-64
2023/02/02 05:04:25;;;;;;;5.15;1.98;;;;;;;;;;4898552;29;20028;-64
2023/02/02 05:06:50;;;;;;;4.00;1.95;;;;;;;;;;4898324;29;20474;-64
2023/02/02 05:09:15;;;;;;;6.00;2.10;;;;;;;;;;4898315;29;20504;-64
2023/02/02 05:11:43;;;;;;;3.30;2.28;;;;;;;;;;4898510;29;20068;-62
2023/02/02 05:14:09;;;;;;;7.22;3.53;;;;;;;;;;4898517;29;20029;-63
2023/02/02 05:16:34;;;;;;;8.43;4.22;;;;;;;;;;4898271;29;20366;-65
2023/02/02 05:18:59;;;;;;;6.75;3.30;;;;;;;;;;4865877;29;20043;-64
2023/02/02 05:21:25;;;;;;;5.15;3.38;;;;;;;;;;4897735;29;20088;-60
2023/02/02 05:23:50;;;;;;;5.28;2.80;;;;;;;;;;4881356;29;20084;-62
2023/02/02 05:26:18;;;;;;;3.85;2.28;;;;;;;;;;4881327;29;20040;-63
2023/02/02 05:28:43;;;;;;;3.55;2.17;;;;;;;;;;4880438;29;20043;-66
2023/02/02 05:31:09;;;;;;;4.45;2.80;;;;;;;;;;4898046;29;20055;-66
2023/02/02 05:33:34;;;;;;;7.32;2.95;;;;;;;;;;4892361;29;20021;-67
2023/02/02 05:35:59;;;;;;;5.75;3.30;;;;;;;;;;4891989;29;20032;-72
2023/02/02 05:38:25;;;;;;;5.00;3.40;;;;;;;;;;4898501;29;20016;-69
2023/02/02 05:40:52;;;;;;;6.13;3.60;;;;;;;;;;4880788;29;20052;-70
2023/02/02 05:43:18;;;;;;;6.38;3.08;;;;;;;;;;4884114;29;20065;-69
2023/02/02 05:45:43;;;;;;;4.85;3.55;;;;;;;;;;4894705;29;20028;-69
2023/02/02 05:48:11;;;;;;;6.45;3.58;;;;;;;;;;4888265;23;20063;-70
2023/02/02 05:50:40;;;;;;;5.45;3.42;;;;;;;;;;4895127;29;20119;-69
2023/02/02 05:53:06;;;;;;;7.03;4.10;;;;;;;;;;4899654;29;20036;-69
2023/02/02 05:55:31;;;;;;;5.57;3.90;;;;;;;;;;4916698;29;20076;-66
2023/02/02 05:57:56;;;;;;;5.10;3.97;;;;;;;;;;4916949;29;20381;-67
2023/02/02 06:00:22;;;;;;;5.88;3.45;;;;;;;;;;4917830;29;20036;-67
2023/02/02 06:02:47;;;;;;;6.78;3.53;;;;;;;;;;4917284;29;20064;-67
2023/02/02 06:05:13;;;;;;;7.07;3.53;;;;;;;;;;4915462;29;20040;-68
2023/02/02 06:07:38;;;;;;;6.97;3.72;;;;;;;;;;4917079;29;20425;-63
2023/02/02 06:10:04;;;;;;;5.22;3.90;;;;;;;;;;4904222;29;20051;-64
2023/02/02 06:12:29;;;;;;;6.93;3.15;;;;;;;;;;4918660;29;20031;-64
2023/02/02 06:14:54;;;;;;;5.68;3.20;;;;;;;;;;4936096;29;20040;-64
2023/02/02 06:17:20;;;;;;;4.07;2.03;;;;;;;;;;4935829;29;20448;-64
2023/02/02 06:19:45;;;;;;;5.22;3.20;;;;;;;;;;4935784;29;20042;-64
2023/02/02 06:22:10;;;;;;;4.63;2.53;;;;;;;;;;4936955;29;20031;-66
2023/02/02 06:24:36;;;;;;;3.58;2.45;;;;;;;;;;4940178;29;20035;-66
2023/02/02 06:27:01;;;;;;;3.83;2.47;;;;;;;;;;4939711;29;20024;-66
2023/02/02 06:29:26;;;;;;;4.72;2.35;;;;;;;;;;4939457;29;20032;-65
2023/02/02 06:31:52;;;;;;;8.10;2.88;;;;;;;;;;4939776;29;20472;-66
2023/02/02 06:34:17;;;;;;;3.15;2.22;;;;;;;;;;4940791;29;20086;-65
2023/02/02 06:36:42;;;;;;;1.90;1.65;;;;;;;;;;4939891;29;20039;-65
2023/02/02 06:39:08;;;;;;;5.00;2.40;;;;;;;;;;4940375;29;20442;-65
2023/02/02 06:41:34;;;;;;;4.07;2.10;;;;;;;;;;4922776;29;20022;-65
2023/02/02 06:43:59;;;;;;;5.15;2.38;;;;;;;;;;4931346;29;20548;-65
2023/02/02 06:46:25;;;;;;;5.10;2.42;;;;;;;;;;4902189;29;20123;-62
2023/02/02 06:48:54;;;;;;;6.57;2.78;;;;;;;;;;4902016;29;20112;-61
2023/02/02 06:51:20;;;;;;;3.55;2.20;;;;;;;;;;4901997;29;20040;-62
2023/02/02 06:53:48;;;;;;;5.20;2.65;;;;;;;;;;4885234;29;20065;-62
2023/02/02 06:56:13;;;;;;;5.20;2.97;;;;;;;;;;4908081;29;20023;-61
2023/02/02 06:58:39;;;;;;;3.75;2.10;;;;;;;;;;4902546;29;20119;-62
2023/02/02 07:01:06;;;;;;;6.38;2.50;;;;;;;;;;4886829;29;20044;-62
2023/02/02 07:03:32;;;;;;;4.95;2.88;;;;;;;;;;4901525;29;20133;-62
2023/02/02 07:05:57;;;;;;;4.68;2.83;;;;;;;;;;4918878;29;20481;-61
2023/02/02 07:08:23;;;;;;;6.15;3.30;;;;;;;;;;4919558;29;20028;-62
2023/02/02 07:10:48;;;;;;;7.10;3.03;;;;;;;;;;4920609;29;20082;-61
2023/02/02 07:13:13;;;;;;;5.80;2.55;;;;;;;;;;4902557;29;20024;-62
2023/02/02 07:15:39;;;;;;;4.20;3.08;;;;;;;;;;4918628;29;20036;-62
2023/02/02 07:18:04;;;;;;;6.60;3.42;;;;;;;;;;4918517;29;20333;-62
2023/02/02 07:20:30;;;;;;;1.45;0.98;;;;;;;;;;4918448;29;20060;-62
2023/02/02 07:22:55;;;;;;;7.72;3.25;;;;;;;;;;4901383;29;20087;-62
2023/02/02 07:25:21;;;;;;;4.70;2.78;;;;;;;;;;4918642;29;20052;-62
2023/02/02 07:27:49;;;;;;;4.93;3.00;;;;;;;;;;4918963;29;20393;-61
2023/02/02 07:30:15;;;;;;;4.25;2.55;;;;;;;;;;4902392;29;20129;-62
2023/02/02 07:32:45;;;;;;;2.00;1.73;;;;;;;;;;4919904;29;20027;-62
2023/02/02 07:35:10;;;;;;;5.18;2.50;;;;;;;;;;4919996;29;20031;-62
2023/02/02 07:37:35;;;;;;;4.40;2.85;;;;;;;;;;4919948;29;20024;-61
2023/02/02 07:40:01;;;;;;;5.30;3.05;;;;;;;;;;4919810;29;20066;-62
2023/02/02 07:42:26;;;;;;;6.00;2.97;;;;;;;;;;4919767;29;20115;-62
2023/02/02 07:44:51;;;;;;;4.25;3.10;;;;;;;;;;4919761;29;20043;-61
2023/02/02 07:47:16;;;;;;;5.50;3.58;;;;;;;;;;4919709;29;20032;-62
2023/02/02 07:49:42;;;;;;;5.80;3.65;;;;;;;;;;4919509;29;20083;-61
2023/02/02 07:52:07;;;;;;;5.07;2.60;;;;;;;;;;4919605;29;20056;-62
2023/02/02 07:54:32;;;;;;;5.68;3.90;;;;;;;;;;4902752;29;20439;-62
2023/02/02 07:56:59;;;;;;;3.78;0.77;;;;;;;;;;4919652;29;20091;-62
2023/02/02 07:59:25;;;;;;;5.38;2.95;;;;;;;;;;4919689;29;20048;-61
2023/02/02 08:01:50;;;;;;;5.75;3.30;;;;;;;;;;4919582;29;20059;-61
2023/02/02 08:04:16;;;;;;;5.15;2.78;;;;;;;;;;4902769;29;20036;-62
2023/02/02 08:06:41;;;;;;;3.83;2.88;;;;;;;;;;4919530;29;20028;-66
2023/02/02 08:09:07;;;;;;;5.35;2.92;;;;;;;;;;4910813;23;20076;-62
2023/02/02 08:11:33;;;;;;;5.93;3.92;;;;;;;;;;4938211;29;20036;-62
2023/02/02 08:14:00;;;;;;;4.50;2.67;;;;;;;;;;4938255;29;20035;-62
2023/02/02 08:16:26;;;;;;;5.88;2.95;;;;;;;;;;4921235;29;20032;-62
2023/02/02 08:18:51;;;;;;;5.55;3.22;;;;;;;;;;4938145;29;20111;-61
2023/02/02 08:21:17;;;;;;;4.60;2.65;;;;;;;;;;4958164;23;20104;-61
2023/02/02 08:23:42;;;;;;;3.50;2.30;;;;;;;;;;4905268;29;20062;-66
2023/02/02 08:26:12;;;;;;;3.30;2.40;;;;;;;;;;4920958;29;20051;-66
2023/02/02 08:28:38;;;;;;;1.70;1.57;;;;;;;;;;4920998;29;20020;-66
2023/02/02 08:31:04;;;;;;;3.00;2.45;;;;;;;;;;4920804;29;20386;-66
2023/02/02 08:33:29;;;;;;;2.40;2.00;;;;;;;;;;4937896;29;20031;-66
2023/02/02 08:35:55;;;;;;;2.28;2.08;;;;;;;;;;4937838;29;20461;-66
2023/02/02 08:38:22;;;;;;;4.32;2.47;;;;;;;;;;4937832;29;20024;-66
2023/02/02 08:40:47;;;;;;;6.25;2.75;;;;;;;;;;4937713;29;20072;-66
2023/02/02 08:43:12;;;;;;;4.18;3.28;;;;;;;;;;4937814;29;20045;-66
2023/02/02 08:45:41;;;;;;;4.45;2.72;;;;;;;;;;4920048;29;20134;-66
2023/02/02 08:48:06;;;;;;;4.07;2.42;;;;;;;;;;4937735;29;20536;-66
2023/02/02 08:50:32;;;;;;;3.85;2.88;;;;;;;;;;4937587;29;20036;-66
2023/02/02 08:52:57;;;;;;;3.17;2.88;;;;;;;;;;4920662;29;20035;-66
2023/02/02 08:55:23;;;;;;;4.38;3.15;;;;;;;;;;4937407;29;20028;-66
2023/02/02 08:57:48;;;;;;;5.95;3.78;;;;;;;;;;4937521;29;20070;-66
2023/02/02 09:00:14;;;;;;;6.30;4.07;;;;;;;;;;4920334;29;20485;-66
2023/02/02 09:02:39;;;;;;;4.75;3.70;;;;;;;;;;4937470;29;20035;-66
2023/02/02 09:05:06;;;;;;;4.70;3.83;;;;;;;;;;4938142;29;20167;-66
2023/02/02 09:07:31;;;;;;;6.15;3.67;;;;;;;;;;4938538;29;20027;-66
2023/02/02 09:09:57;;;;;;;5.15;3.13;;;;;;;;;;4937372;29;20373;-66
2023/02/02 09:12:22;;;;;;;7.25;4.65;;;;;;;;;;4937136;29;20465;-66
2023/02/02 09:14:50;;;;;;;7.30;4.88;;;;;;;;;;4937498;29;20023;-66
2023/02/02 09:17:15;;;;;;;7.32;4.95;;;;;;;;;;4937130;29;20365;-66
2023/02/02 09:19:40;;;;;;;6.18;4.25;;;;;;;;;;4936997;29;20083;-66
2023/02/02 09:22:07;;;;;;;8.00;5.40;;;;;;;;;;4936908;29;20126;-66
2023/02/02 09:24:34;;;;;;;5.50;4.45;;;;;;;;;;4937056;29;20047;-66
2023/02/02 09:26:59;;;;;;;9.80;5.82;;;;;;;;;;4920101;29;20113;-66
2023/02/02 09:29:25;;;;;;;9.30;6.18;;;;;;;;;;4936771;29;20036;-66
2023/02/02 09:31:51;;;;;;;9.43;5.97;;;;;;;;;;4937081;29;20052;-66
2023/02/02 09:34:16;;;;;;;12.02;6.40;;;;;;;;;;4936809;29;20468;-66
2023/02/02 09:36:42;;;;;;;7.93;6.03;;;;;;;;;;4936728;29;20123;-66
2023/02/02 09:39:09;;;;;;;5.53;3.97;;;;;;;;;;4936748;29;20114;-66
2023/02/02 09:41:37;;;;;;;11.32;7.57;;;;;;;;;;4903901;29;20543;-66
2023/02/02 09:44:05;;;;;;;10.05;6.28;;;;;;;;;;4903815;29;20393;-66
2023/02/02 09:46:41;;;;;;;7.55;4.68;;;;;;;;;;4919694;29;20039;-66
2023/02/02 09:49:11;;;;;;;6.63;5.07;;;;;;;;;;4919573;29;20372;-66
2023/02/02 09:51:40;;;;;;;6.32;3.70;;;;;;;;;;4936549;29;20116;-66
2023/02/02 09:54:18;;;;;;;6.03;4.50;;;;;;;;;;4936624;29;20024;-66
2023/02/02 09:56:45;;;;;;;4.43;3.53;;;;;;;;;;4935660;29;20027;-66
2023/02/02 09:59:26;;;;;;;3.20;2.90;;;;;;;;;;4936470;29;20036;-66
2023/02/02 10:01:55;;;;;;;3.25;2.75;;;;;;;;;;4936538;29;20043;-66
2023/02/02 10:04:24;;;;;;;3.05;2.28;;;;;;;;;;4919336;29;20542;-66
2023/02/02 10:06:55;;;;;;;2.60;2.40;;;;;;;;;;4936388;29;20127;-66
2023/02/02 10:09:32;;;;;;;2.70;2.35;;;;;;;;;;4936338;29;20507;-66
2023/02/02 10:12:11;;;;;;;3.65;2.50;;;;;;;;;;4936603;29;20039;-66
2023/02/02 10:14:56;;;;;;;2.78;2.47;;;;;;;;;;4919379;29;20110;-66
2023/02/02 10:17:31;;;;;;;2.72;2.53;;;;;;;;;;4919323;29;20040;-66
2023/02/02 10:20:00;;;;;;;3.08;2.80;;;;;;;;;;4919563;29;20036;-66
2023/02/02 10:22:28;;;;;;;3.25;2.83;;;;;;;;;;4936032;29;20075;-66
2023/02/02 10:24:55;;;;;;;2.70;2.40;;;;;;;;;;4936260;29;20031;-66
2023/02/02 10:27:36;;;;;;;2.50;2.30;;;;;;;;;;4936201;29;20020;-66
2023/02/02 10:30:02;;;;;;;2.28;2.08;;;;;;;;;;4936404;29;20047;-66
2023/02/02 10:32:30;;;;;;;3.90;2.50;;;;;;;;;;4919090;29;20059;-68
2023/02/02 10:34:56;;;;;;;2.88;1.90;;;;;;;;;;4919167;29;20054;-66
2023/02/02 10:37:21;;;;;;;2.17;2.08;;;;;;;;;;4936092;29;20468;-66
2023/02/02 10:39:53;;;;;;;1.95;1.75;;;;;;;;;;4919032;29;20395;-66
2023/02/02 10:42:25;;;;;;;2.42;1.90;;;;;;;;;;4944139;23;20180;-62
2023/02/02 10:44:56;;;;;;;2.38;1.52;;;;;;;;;;4903153;29;20111;-65
2023/02/02 10:47:24;;;;;;;2.72;1.52;;;;;;;;;;4936082;29;20027;-66
2023/02/02 10:49:53;;;;;;;3.55;2.30;;;;;;;;;;4935937;29;20043;-66
2023/02/02 10:52:25;;;;;;;2.65;1.80;;;;;;;;;;4935996;29;20102;-65
2023/02/02 10:57:56;;;;;;;2.80;1.95;;;;;;;;;;4859195;29;20050;-66
2023/02/02 11:00:29;;;;;;;2.50;2.10;;;;;;;;;;4844307;29;20041;-66
2023/02/02 11:02:54;;;;;;;3.75;1.95;;;;;;;;;;4844179;29;20041;-66
2023/02/02 11:08:12;;;;;;;3.55;2.58;;;;;;;;;;4861879;29;20121;-66
2023/02/02 11:10:37;;;;;;;2.72;2.20;;;;;;;;;;4847691;29;20037;-66
2023/02/02 11:13:04;;;;;;;2.55;2.10;;;;;;;;;;4864415;29;20390;-66
2023/02/02 11:15:30;;;;;;;1.92;1.73;;;;;;;;;;4865577;29;20052;-66
2023/02/02 11:18:11;;;;;;;2.42;1.75;;;;;;;;;;4865635;29;20471;-66
2023/02/02 11:20:37;;;;;;;1.80;1.52;;;;;;;;;;4864130;29;20033;-66
2023/02/02 11:23:06;;;;;;;1.98;1.83;;;;;;;;;;4864085;29;20078;-66
2023/02/02 11:25:38;;;;;;;2.22;2.03;;;;;;;;;;4847572;29;20393;-66
2023/02/02 11:28:18;;;;;;;1.73;1.58;;;;;;;;;;4863987;29;20471;-66
2023/02/02 11:30:49;;;;;;;2.72;1.52;;;;;;;;;;4847364;29;20453;-66
2023/02/02 11:33:21;;;;;;;2.70;2.05;;;;;;;;;;4863970;29;20066;-66
2023/02/02 11:35:55;;;;;;;2.95;1.55;;;;;;;;;;4847408;29;20057;-66
2023/02/02 11:38:20;;;;;;;2.58;1.75;;;;;;;;;;4847378;29;20090;-66
2023/02/02 11:41:09;;;;;;;1.95;1.65;;;;;;;;;;4863732;29;20382;-66
2023/02/02 11:43:40;;;;;;;1.58;1.48;;;;;;;;;;4863872;29;20045;-66
2023/02/02 11:46:06;;;;;;;1.92;1.60;;;;;;;;;;4862436;29;20045;-66
2023/02/02 11:48:33;;;;;;;2.17;1.63;;;;;;;;;;4847168;29;20021;-66
2023/02/02 11:51:00;;;;;;;1.63;1.40;;;;;;;;;;4863563;29;20541;-66
2023/02/02 11:53:28;;;;;;;2.17;1.92;;;;;;;;;;4863507;29;20120;-66
2023/02/02 11:55:54;;;;;;;2.92;1.92;;;;;;;;;;4852080;29;20505;-66
2023/02/02 11:58:26;;;;;;;1.40;1.30;;;;;;;;;;4865412;29;20391;-66
2023/02/02 12:00:53;;;;;;;1.48;1.35;;;;;;;;;;4865382;29;20041;-66
2023/02/02 12:03:37;;;;;;;2.67;1.40;;;;;;;;;;4881922;29;20037;-66
2023/02/02 12:06:16;;;;;;;1.80;1.38;;;;;;;;;;4881963;29;20520;-66
2023/02/02 12:08:43;;;;;;;1.92;1.55;;;;;;;;;;4865250;29;20033;-66
2023/02/02 12:11:14;;;;;;;1.98;1.17;;;;;;;;;;4881952;29;20041;-66
2023/02/02 12:13:50;;;;;;;2.92;1.40;;;;;;;;;;4881698;29;20069;-66
2023/02/02 12:16:34;;;;;;;2.85;1.20;;;;;;;;;;4881714;29;20478;-66
2023/02/02 12:19:31;;;;;;;1.50;1.38;;;;;;;;;;4881484;29;20033;-66
2023/02/02 12:22:15;;;;;;;1.60;1.13;;;;;;;;;;4860250;29;20129;-66
2023/02/02 12:24:48;;;;;;;2.47;1.50;;;;;;;;;;4849423;29;20044;-66
2023/02/02 12:27:31;;;;;;;1.20;1.10;;;;;;;;;;4881627;29;20064;-66
2023/02/02 12:29:59;;;;;;;1.52;1.27;;;;;;;;;;4881518;29;20116;-66
2023/02/02 12:32:44;;;;;;;1.30;1.20;;;;;;;;;;4881487;29;20120;-66
2023/02/02 12:35:28;;;;;;;2.15;1.30;;;;;;;;;;4881463;29;20033;-66
2023/02/02 12:38:12;;;;;;;1.40;1.30;;;;;;;;;;4864503;29;20186;-66
2023/02/02 12:40:41;;;;;;;1.60;1.23;;;;;;;;;;4864727;29;20037;-66
2023/02/02 12:43:24;;;;;;;2.50;1.63;;;;;;;;;;4881455;29;20151;-66
2023/02/02 12:45:55;;;;;;;1.40;1.30;;;;;;;;;;4881330;29;20028;-66
2023/02/02 12:48:40;;;;;;;1.40;1.30;;;;;;;;;;4881165;29;20043;-66
2023/02/02 12:51:09;;;;;;;1.58;1.48;;;;;;;;;;4879749;29;20127;-66
2023/02/02 12:53:34;;;;;;;1.30;1.25;;;;;;;;;;4864433;29;20093;-65
2023/02/02 12:56:02;;;;;;;1.88;1.30;;;;;;;;;;4864164;29;20049;-66
2023/02/02 12:58:35;;;;;;;1.73;1.40;;;;;;;;;;4881110;29;20124;-66
2023/02/02 13:01:21;;;;;;;1.88;1.23;;;;;;;;;;4864317;29;20090;-66
2023/02/02 13:04:01;;;;;;;1.70;1.25;;;;;;;;;;4880323;29;20482;-66
2023/02/02 13:06:37;;;;;;;1.42;1.33;;;;;;;;;;4880855;29;20033;-66
2023/02/02 13:09:18;;;;;;;1.75;1.23;;;;;;;;;;4880743;29;20037;-66
2023/02/02 13:11:49;;;;;;;3.33;1.83;;;;;;;;;;4879300;29;20059;-66
2023/02/02 13:14:34;;;;;;;1.27;1.17;;;;;;;;;;4879472;29;20398;-65
2023/02/02 13:17:04;;;;;;;2.63;1.40;;;;;;;;;;4970290;23;20412;-64
2023/02/02 13:19:32;;;;;;;2.78;1.40;;;;;;;;;;4920116;29;20067;-64
2023/02/02 13:22:01;;;;;;;2.65;1.90;;;;;;;;;;4937164;29;20040;-65
2023/02/02 13:24:29;;;;;;;2.15;1.52;;;;;;;;;;4937034;29;20035;-65
2023/02/02 13:26:56;;;;;;;1.52;1.05;;;;;;;;;;4937001;29;20031;-60
2023/02/02 13:29:54;;;;;;;2.22;1.95;;;;;;;;;;4919971;29;20032;-64
2023/02/02 13:32:23;;;;;;;2.95;2.05;;;;;;;;;;4879250;29;20048;-65
2023/02/02 13:35:01;;;;;;;3.45;2.03;;;;;;;;;;4921080;29;20461;-65
2023/02/02 13:37:38;;;;;;;3.78;2.13;;;;;;;;;;4938109;29;20028;-65
2023/02/02 13:40:11;;;;;;;2.10;1.50;;;;;;;;;;4920100;29;20472;-65
2023/02/02 13:42:37;;;;;;;2.38;1.70;;;;;;;;;;4936718;29;20063;-64
2023/02/02 13:45:13;;;;;;;1.63;1.52;;;;;;;;;;4919720;29;20122;-65
2023/02/02 13:47:44;;;;;;;3.10;2.03;;;;;;;;;;4903861;29;20063;-65
2023/02/02 13:50:10;;;;;;;;;;;;;;;;;;4920094;29;20039;-64
2023/02/02 13:52:51;;;;;;;3.15;1.80;;;;;;;;;;4919588;29;19917;-64
2023/02/02 13:55:16;;;;;;;;;;;;;;;;;;4937023;29;20485;-65
2023/02/02 13:57:55;;;;;;;3.17;1.40;;;;;;;;;;4936560;29;19953;-65
2023/02/02 14:00:33;;;;;;;3.50;2.00;;;;;;;;;;4936529;29;20717;-64
2023/02/02 14:03:02;;;;;;;2.88;1.77;;;;;;;;;;4919385;29;20028;-65
2023/02/02 14:05:36;;;;;;;3.83;1.80;;;;;;;;;;4936398;29;20048;-65
2023/02/02 14:08:03;;;;;;;2.22;1.92;;;;;;;;;;4936450;29;20027;-65
2023/02/02 14:10:51;;;;;;;3.13;1.73;;;;;;;;;;4936295;29;20152;-64
2023/02/02 14:16:20;;;;;;;2.05;1.70;;;;;;;;;;4859138;29;20056;-65
2023/02/02 14:18:53;;;;;;;4.15;2.50;;;;;;;;;;4903842;29;20040;-65
2023/02/02 14:21:31;;;;;;;4.18;2.22;;;;;;;;;;4936348;29;20047;-67
2023/02/02 14:23:57;;;;;;;3.45;1.98;;;;;;;;;;4936241;29;20032;-67
2023/02/02 14:26:39;;;;;;;2.67;2.00;;;;;;;;;;4919241;29;20110;-65
2023/02/02 14:29:23;;;;;;;3.50;2.67;;;;;;;;;;4936206;29;20032;-67
2023/02/02 14:31:52;;;;;;;3.22;2.78;;;;;;;;;;4903256;29;20032;-67
2023/02/02 14:34:27;;;;;;;3.17;2.20;;;;;;;;;;4919093;29;20477;-67
2023/02/02 14:37:11;;;;;;;3.22;1.95;;;;;;;;;;4903123;29;20036;-68
2023/02/02 14:39:41;;;;;;;2.45;2.03;;;;;;;;;;4936444;29;20447;-68
2023/02/02 14:45:13;;;;;;;3.95;1.77;;;;;;;;;;4940139;29;20091;-68
2023/02/02 14:47:51;;;;;;;3.75;2.20;;;;;;;;;;4940519;29;20034;-68
2023/02/02 14:50:23;;;;;;;2.55;1.88;;;;;;;;;;4923319;29;20047;-66
2023/02/02 14:53:15;;;;;;;2.55;1.92;;;;;;;;;;4939616;29;20397;-68
2023/02/02 14:55:54;;;;;;;2.08;1.88;;;;;;;;;;4924750;29;20044;-68
2023/02/02 14:58:41;;;;;;;2.25;1.77;;;;;;;;;;4919864;29;20028;-68
2023/02/02 15:01:12;;;;;;;4.50;2.38;;;;;;;;;;4886001;29;20043;-68
2023/02/02 15:04:15;;;;;;;3.10;1.90;;;;;;;;;;4919229;29;20063;-68
2023/02/02 15:06:41;;;;;;;3.90;2.55;;;;;;;;;;4919299;29;20558;-68
2023/02/02 15:09:19;;;;;;;2.67;2.00;;;;;;;;;;4918460;29;20028;-66
2023/02/02 15:14:25;;;;;;;;;;;;;;;;;;4919630;29;20571;-66
2023/02/02 15:16:51;;;;;;;2.35;2.13;;;;;;;;;;4918974;29;20006;-66
2023/02/02 15:19:21;;;;;;;3.28;2.03;;;;;;;;;;4902706;29;20028;-66
2023/02/02 15:21:47;;;;;;;10.50;5.75;;;;;;;;;;4919534;29;20167;-66
2023/02/02 15:24:19;;;;;;;6.55;3.42;;;;;;;;;;4920483;29;20464;-66